Time;durP1;ratioP1;P1;durP2;ratioP2;P2;SDS_P1;SDS_P2;PMS_P1;PMS_P2;Temp;Humidity;BMP_temperature;BMP_pressure;BME280_temperature;BME280_humidity;BME280_pressure;Samples;Min_cycle;Max_cycle;Signal;HPM_P1;HPM_P2
2023/01/15 00:00:28;;;;;;;0.57;0.57;;;13.50;58.00;13.70;95567.00;;;;5035084;28;20229;-82
2023/01/15 00:02:57;;;;;;;0.50;0.30;;;13.50;57.80;13.70;95573.00;;;;5034878;28;20202;-83
2023/01/15 00:05:28;;;;;;;0.93;0.43;;;13.50;57.60;13.60;95555.00;;;;5035093;28;20259;-83
2023/01/15 00:07:56;;;;;;;2.97;0.47;;;13.50;57.40;13.60;95562.00;;;;5034686;28;20271;-83
2023/01/15 00:10:24;;;;;;;0.90;0.50;;;13.50;57.50;13.60;95553.00;;;;5035129;28;20226;-83
2023/01/15 00:12:53;;;;;;;0.50;0.40;;;13.40;57.50;13.60;95547.00;;;;5034977;28;20239;-82
2023/01/15 00:15:23;;;;;;;1.87;0.50;;;13.40;57.10;13.50;95545.00;;;;5034794;28;20646;-84
2023/01/15 00:17:57;;;;;;;9.83;1.40;;;13.40;57.30;13.50;95539.00;;;;5034227;28;20240;-83
2023/01/15 00:20:32;;;;;;;0.50;0.50;;;13.40;57.60;13.50;95524.00;;;;5034682;28;20220;-83
2023/01/15 00:27:37;;;;;;;3.40;0.83;;;13.40;57.50;13.50;95529.00;;;;5034296;28;20177;-83
2023/01/15 00:28:50;;;;;;;0.40;0.40;;;13.40;57.10;13.50;95526.00;;;;5033943;28;20240;-83
2023/01/15 00:31:32;;;;;;;0.53;0.50;;;13.40;57.00;13.50;95518.00;;;;5034084;28;20239;-83
2023/01/15 00:34:06;;;;;;;1.43;0.70;;;13.40;56.40;13.50;95517.00;;;;5033886;28;20193;-83
2023/01/15 00:36:36;;;;;;;18.43;2.07;;;13.40;56.50;13.50;95517.00;;;;5033926;28;20205;-83
2023/01/15 00:39:18;;;;;;;17.57;1.40;;;13.40;56.90;13.60;95522.00;;;;5033655;28;20216;-82
2023/01/15 00:41:48;;;;;;;13.03;1.20;;;13.40;57.50;13.60;95527.00;;;;5034381;28;20205;-83
2023/01/15 00:44:15;;;;;;;0.40;0.40;;;13.40;57.70;13.60;95507.00;;;;5034495;28;20235;-83
2023/01/15 00:46:43;;;;;;;1.63;0.83;;;13.40;57.60;13.60;95518.00;;;;5034310;28;20228;-83
2023/01/15 00:49:13;;;;;;;8.77;1.13;;;13.40;58.20;13.50;95517.00;;;;5033612;28;20225;-82
2023/01/15 00:51:42;;;;;;;0.53;0.53;;;13.40;58.80;13.50;95517.00;;;;5033696;28;20713;-82
2023/01/15 00:54:20;;;;;;;10.90;1.20;;;13.40;59.00;13.50;95505.00;;;;5033066;28;20286;-83
2023/01/15 00:56:49;;;;;;;14.00;1.40;;;13.40;59.50;13.40;95507.00;;;;5033045;28;20657;-83
2023/01/15 00:59:25;;;;;;;2.40;0.60;;;13.30;59.80;13.40;95498.00;;;;5032937;28;20293;-83
2023/01/15 01:01:58;;;;;;;3.33;0.60;;;13.30;59.90;13.40;95506.00;;;;5033133;28;20283;-82
2023/01/15 01:04:28;;;;;;;4.60;0.77;;;13.30;59.90;13.30;95521.00;;;;5032996;28;20197;-83
2023/01/15 01:07:09;;;;;;;0.57;0.57;;;13.20;59.90;13.20;95506.00;;;;5032602;28;20263;-83
2023/01/15 01:09:44;;;;;;;0.67;0.40;;;13.20;60.00;13.20;95515.00;;;;5033384;28;20224;-83
2023/01/15 01:12:16;;;;;;;42.57;2.67;;;13.10;60.00;13.10;95519.00;;;;5032609;28;20244;-83
2023/01/15 01:14:55;;;;;;;30.83;2.43;;;13.10;60.40;13.10;95505.00;;;;5033113;28;20181;-83
2023/01/15 01:17:25;;;;;;;0.77;0.43;;;13.10;61.00;13.10;95503.00;;;;5033155;28;20262;-83
2023/01/15 01:20:01;;;;;;;0.70;0.50;;;13.10;61.40;13.10;95489.00;;;;5033229;28;20820;-83
2023/01/15 01:22:36;;;;;;;0.90;0.50;;;13.00;61.00;13.00;95491.00;;;;5032959;28;20253;-84
2023/01/15 01:25:18;;;;;;;0.50;0.40;;;13.00;61.50;13.00;95495.00;;;;5032414;28;20210;-84
2023/01/15 01:27:49;;;;;;;2.17;0.47;;;12.90;60.50;12.90;95490.00;;;;5032472;28;20228;-83
2023/01/15 01:30:26;;;;;;;3.90;0.40;;;12.80;61.10;12.90;95481.00;;;;5032909;28;20276;-84
2023/01/15 01:32:53;;;;;;;1.97;0.33;;;12.80;61.60;12.80;95476.00;;;;5032873;28;20276;-83
2023/01/15 01:35:25;;;;;;;0.53;0.30;;;12.70;61.40;12.70;95472.00;;;;5033034;28;20263;-84
2023/01/15 01:38:01;;;;;;;1.13;0.40;;;12.70;62.10;12.70;95448.00;;;;5032654;28;20209;-83
2023/01/15 01:40:43;;;;;;;0.43;0.40;;;12.60;61.10;12.60;95460.00;;;;5032732;28;20219;-83
2023/01/15 01:43:25;;;;;;;0.20;0.20;;;12.60;61.70;12.50;95441.00;;;;5032688;28;20269;-83
2023/01/15 01:46:00;;;;;;;0.57;0.33;;;12.50;61.40;12.40;95442.00;;;;5032118;28;20669;-83
2023/01/15 01:48:45;;;;;;;9.53;0.80;;;12.40;61.30;12.30;95452.00;;;;5032145;28;20221;-84
2023/01/15 01:51:17;;;;;;;2.33;0.60;;;12.40;62.10;12.30;95441.00;;;;5032745;28;20355;-83
2023/01/15 01:53:48;;;;;;;8.00;0.93;;;12.30;62.40;12.30;95436.00;;;;5032475;28;20181;-84
2023/01/15 01:59:13;;;;;;;11.77;1.00;;;12.20;63.80;12.20;95437.00;;;;5032401;28;20198;-84
2023/01/15 02:01:59;;;;;;;5.43;0.70;;;12.20;64.30;12.20;95432.00;;;;5032593;28;20184;-83
2023/01/15 02:04:32;;;;;;;0.90;0.27;;;12.20;64.70;12.20;95419.00;;;;5032821;28;20197;-84
2023/01/15 02:07:06;;;;;;;0.30;0.30;;;12.10;64.30;12.10;95413.00;;;;5032715;28;20174;-84
2023/01/15 02:09:34;;;;;;;0.60;0.40;;;12.10;64.00;12.00;95409.00;;;;5032413;28;20228;-84
2023/01/15 02:12:30;;;;;;;0.30;0.30;;;12.00;63.70;12.00;95403.00;;;;5033401;28;20678;-84
2023/01/15 02:15:21;;;;;;;0.40;0.40;;;12.00;64.10;11.90;95391.00;;;;5032507;28;20704;-84
2023/01/15 02:18:01;;;;;;;0.60;0.60;;;11.90;64.40;11.90;95394.00;;;;5034354;28;20333;-84
2023/01/15 02:20:42;;;;;;;0.60;0.60;;;11.90;64.60;11.80;95375.00;;;;5036040;28;20708;-84
2023/01/15 02:24:06;;;;;;;0.63;0.63;;;11.80;64.90;11.70;95378.00;;;;5036564;28;20205;-83
2023/01/15 02:27:13;;;;;;;0.70;0.70;;;11.80;65.20;11.70;95370.00;;;;5035226;28;20216;-84
2023/01/15 02:30:04;;;;;;;1.77;0.70;;;11.90;64.90;11.70;95366.00;;;;5035705;28;20260;-83
2023/01/15 02:32:49;;;;;;;2.20;0.40;;;11.70;65.00;11.70;95364.00;;;;5035739;28;20280;-84
2023/01/15 02:35:27;;;;;;;2.77;0.70;;;11.70;66.00;11.70;95359.00;;;;5035561;28;20263;-83
2023/01/15 02:38:03;;;;;;;5.93;0.90;;;11.70;66.10;11.70;95359.00;;;;5035396;28;20228;-83
2023/01/15 02:40:39;;;;;;;11.70;1.93;;;11.60;66.20;11.70;95351.00;;;;5035675;28;20643;-84
2023/01/15 02:43:22;;;;;;;0.50;0.50;;;11.60;66.70;11.70;95359.00;;;;5035727;28;20251;-83
2023/01/15 02:46:09;;;;;;;1.07;0.57;;;11.60;67.20;11.70;95344.00;;;;5035580;28;20197;-84
2023/01/15 02:48:44;;;;;;;13.33;1.67;;;11.60;66.90;11.70;95352.00;;;;5033619;28;20285;-84
2023/01/15 02:51:18;;;;;;;12.90;1.33;;;11.60;66.90;11.70;95352.00;;;;5036026;28;20220;-84
2023/01/15 02:54:04;;;;;;;21.40;2.13;;;11.60;67.40;11.70;95344.00;;;;5036156;28;20186;-84
2023/01/15 02:56:34;;;;;;;2.20;0.60;;;11.60;67.60;11.70;95342.00;;;;5036417;28;20280;-84
2023/01/15 02:59:16;;;;;;;3.63;0.90;;;11.60;67.40;11.70;95344.00;;;;5036139;28;20216;-84
2023/01/15 03:02:19;;;;;;;39.47;2.57;;;11.60;67.60;11.70;95356.00;;;;5036522;28;20232;-84
2023/01/15 03:05:17;;;;;;;8.03;0.80;;;11.60;68.20;11.70;95350.00;;;;5034471;28;20197;-84
2023/01/15 03:07:52;;;;;;;0.70;0.60;;;11.60;67.80;11.70;95322.00;;;;5035621;28;20263;-84
2023/01/15 03:10:38;;;;;;;0.50;0.50;;;11.60;66.90;11.60;95342.00;;;;5034929;28;20228;-84
2023/01/15 03:13:07;;;;;;;0.50;0.50;;;11.60;66.50;11.60;95347.00;;;;5035088;28;20284;-84
2023/01/15 03:18:50;;;;;;;0.40;0.40;;;11.50;66.60;11.50;95320.00;;;;5034736;28;20177;-84
2023/01/15 03:21:25;;;;;;;2.50;0.80;;;11.50;66.30;11.50;95318.00;;;;5034703;28;20286;-84
2023/01/15 03:23:56;;;;;;;21.37;1.83;;;11.50;66.50;11.50;95331.00;;;;5034638;28;20694;-84
2023/01/15 03:26:23;;;;;;;27.40;2.50;;;11.50;67.00;11.50;95327.00;;;;5035047;28;20178;-83
2023/01/15 03:28:51;;;;;;;7.87;1.57;;;11.50;67.60;11.50;95321.00;;;;5034574;28;20229;-84
2023/01/15 03:31:20;;;;;;;35.20;2.90;;;11.50;67.90;11.60;95325.00;;;;5035134;28;20226;-84
2023/01/15 03:33:47;;;;;;;2.37;0.70;;;11.50;68.40;11.60;95324.00;;;;5035166;28;20232;-82
2023/01/15 03:36:15;;;;;;;1.63;0.70;;;11.50;68.70;11.60;95330.00;;;;5035058;28;20724;-84
2023/01/15 03:38:45;;;;;;;4.53;1.33;;;11.50;69.00;11.60;95328.00;;;;5034334;28;20201;-84
2023/01/15 03:41:32;;;;;;;1.93;0.83;;;11.50;69.00;11.60;95296.00;;;;5033886;28;20220;-83
2023/01/15 03:44:13;;;;;;;36.40;3.40;;;11.50;69.50;11.60;95309.00;;;;5034064;28;20228;-83
2023/01/15 03:46:58;;;;;;;66.53;4.67;;;11.50;69.90;11.60;95297.00;;;;5034508;28;20194;-84
2023/01/15 03:49:42;;;;;;;28.73;2.83;;;11.50;69.40;11.60;95311.00;;;;5033940;28;20305;-83
2023/01/15 03:52:19;;;;;;;2.73;0.57;;;11.50;69.60;11.60;95291.00;;;;5034348;28;20186;-84
2023/01/15 03:54:58;;;;;;;40.67;3.27;;;11.50;69.70;11.60;95292.00;;;;5034319;28;20228;-83
2023/01/15 03:57:36;;;;;;;3.33;0.80;;;11.50;69.80;11.60;95286.00;;;;5034285;28;20781;-84
2023/01/15 04:00:13;;;;;;;2.60;0.60;;;11.50;69.90;11.60;95284.00;;;;5033298;28;20276;-84
2023/01/15 04:02:45;;;;;;;41.37;3.20;;;11.50;70.00;11.70;95290.00;;;;5034206;28;20189;-84
2023/01/15 04:05:15;;;;;;;3.87;1.00;;;11.50;70.00;11.70;95281.00;;;;5033877;28;20276;-84
2023/01/15 04:07:44;;;;;;;0.47;0.47;;;11.50;70.10;11.70;95281.00;;;;5034090;28;20220;-84
2023/01/15 04:10:12;;;;;;;0.50;0.50;;;11.50;70.20;11.70;95273.00;;;;5033900;28;20221;-84
2023/01/15 04:12:39;;;;;;;25.37;1.80;;;11.50;70.20;11.70;95278.00;;;;5034058;28;20237;-84
2023/01/15 04:15:08;;;;;;;21.67;1.90;;;11.50;70.20;11.70;95274.00;;;;5033572;28;20251;-83
2023/01/15 04:17:35;;;;;;;0.60;0.60;;;11.50;70.40;11.70;95289.00;;;;5033659;28;20720;-84
2023/01/15 04:20:05;;;;;;;4.03;0.60;;;11.50;70.40;11.70;95277.00;;;;5033930;28;20308;-83
2023/01/15 04:22:34;;;;;;;3.97;0.63;;;11.60;70.50;11.70;95275.00;;;;5033872;28;20194;-84
2023/01/15 04:25:02;;;;;;;13.33;1.47;;;11.50;70.50;11.70;95288.00;;;;5034095;28;20207;-84
2023/01/15 04:27:29;;;;;;;9.10;1.10;;;11.60;70.60;11.70;95279.00;;;;5034017;28;20309;-83
2023/01/15 04:29:58;;;;;;;1.93;0.70;;;11.60;70.70;11.70;95283.00;;;;5033623;28;20221;-84
2023/01/15 04:32:26;;;;;;;28.87;2.43;;;11.60;70.70;11.80;95276.00;;;;5033745;28;20196;-83
2023/01/15 04:34:53;;;;;;;8.20;1.50;;;11.60;70.70;11.80;95270.00;;;;5033394;28;20208;-84
2023/01/15 04:37:24;;;;;;;14.70;1.63;;;11.60;70.80;11.80;95255.00;;;;5033562;28;20306;-84
2023/01/15 04:39:52;;;;;;;5.73;1.30;;;11.60;70.90;11.80;95252.00;;;;5032403;28;20221;-84
2023/01/15 04:45:07;;;;;;;4.77;0.80;;;11.60;70.60;11.80;95244.00;;;;5033312;28;20280;-83
2023/01/15 04:47:34;;;;;;;13.70;2.07;;;11.60;70.50;11.80;95250.00;;;;5033527;28;20252;-84
2023/01/15 04:50:01;;;;;;;8.10;1.40;;;11.60;70.50;11.80;95246.00;;;;5032791;28;20271;-83
2023/01/15 04:52:30;;;;;;;0.67;0.67;;;11.60;70.70;11.80;95249.00;;;;5033090;28;20575;-84
2023/01/15 04:55:00;;;;;;;2.90;0.67;;;11.60;70.90;11.80;95248.00;;;;5032860;28;20197;-83
2023/01/15 04:57:27;;;;;;;4.20;0.90;;;11.60;70.80;11.80;95237.00;;;;5033113;28;20247;-83
2023/01/15 04:59:54;;;;;;;0.93;0.80;;;11.70;70.90;11.80;95232.00;;;;5032978;28;20628;-83
2023/01/15 05:02:22;;;;;;;33.40;2.87;;;11.70;70.80;11.80;95234.00;;;;5033098;28;20209;-84
2023/01/15 05:04:49;;;;;;;1.43;0.77;;;11.70;70.50;11.80;95232.00;;;;5034724;28;20227;-84
2023/01/15 05:07:16;;;;;;;7.03;1.10;;;11.70;70.60;11.80;95221.00;;;;5034660;28;20198;-84
2023/01/15 05:09:46;;;;;;;4.63;0.97;;;11.70;70.70;11.80;95231.00;;;;5034125;28;20229;-83
2023/01/15 05:12:13;;;;;;;19.90;2.17;;;11.70;70.70;11.80;95230.00;;;;5033064;28;20209;-83
2023/01/15 05:14:40;;;;;;;0.80;0.77;;;11.70;70.80;11.80;95217.00;;;;5032818;28;20240;-83
2023/01/15 05:17:07;;;;;;;2.43;0.67;;;11.70;70.80;11.80;95215.00;;;;5033342;28;20198;-84
2023/01/15 05:19:34;;;;;;;24.20;2.67;;;11.70;70.50;11.80;95215.00;;;;5033286;28;20217;-83
2023/01/15 05:22:02;;;;;;;1.67;0.70;;;11.70;70.40;11.80;95232.00;;;;5032324;28;20594;-83
2023/01/15 05:24:29;;;;;;;0.60;0.60;;;11.70;70.60;11.80;95221.00;;;;5032153;28;20280;-84
2023/01/15 05:26:58;;;;;;;18.93;1.70;;;11.70;70.50;11.80;95220.00;;;;5031741;28;20236;-84
2023/01/15 05:29:25;;;;;;;1.50;0.70;;;11.70;70.50;11.80;95229.00;;;;5032180;28;20316;-83
2023/01/15 05:31:52;;;;;;;2.13;1.00;;;11.70;70.60;11.80;95228.00;;;;5032466;28;20201;-84
2023/01/15 05:34:19;;;;;;;0.80;0.80;;;11.70;70.50;11.80;95234.00;;;;5032023;28;20229;-84
2023/01/15 05:36:46;;;;;;;0.77;0.77;;;11.60;70.50;11.80;95227.00;;;;5032399;28;20229;-84
2023/01/15 05:39:14;;;;;;;0.67;0.60;;;11.60;70.50;11.80;95237.00;;;;5032287;28;20197;-83
2023/01/15 05:41:51;;;;;;;0.70;0.70;;;11.60;70.50;11.80;95223.00;;;;5032880;28;20255;-84
2023/01/15 05:44:24;;;;;;;10.07;1.17;;;11.60;70.50;11.80;95227.00;;;;5032611;28;20614;-83
2023/01/15 05:46:53;;;;;;;45.03;3.67;;;11.60;70.50;11.80;95227.00;;;;5032068;28;20209;-84
2023/01/15 05:49:24;;;;;;;16.03;1.83;;;11.60;71.40;11.80;95219.00;;;;5032084;28;20220;-84
2023/01/15 05:51:52;;;;;;;4.17;1.00;;;11.60;70.90;11.80;95223.00;;;;5032017;28;20201;-84
2023/01/15 05:54:23;;;;;;;21.37;2.53;;;11.60;71.10;11.80;95217.00;;;;5032066;28;20941;-84
2023/01/15 05:56:50;;;;;;;7.07;1.10;;;11.70;71.30;11.80;95219.00;;;;5031750;28;20189;-83
2023/01/15 05:59:22;;;;;;;20.67;1.70;;;11.70;71.30;11.90;95218.00;;;;5031870;28;20702;-83
2023/01/15 06:01:49;;;;;;;12.00;1.40;;;11.70;71.30;11.90;95212.00;;;;5032129;28;20247;-84
2023/01/15 06:04:19;;;;;;;28.93;2.60;;;11.70;71.40;11.90;95214.00;;;;5031493;28;20646;-84
2023/01/15 06:06:48;;;;;;;51.60;4.20;;;11.70;71.40;11.90;95219.00;;;;5031973;28;20255;-83
2023/01/15 06:09:16;;;;;;;7.70;1.33;;;11.70;71.40;11.90;95218.00;;;;5031618;28;20225;-84
2023/01/15 06:11:43;;;;;;;0.50;0.50;;;11.70;71.40;11.90;95215.00;;;;5032056;28;20232;-83
2023/01/15 06:14:11;;;;;;;34.50;3.73;;;11.70;71.40;11.90;95221.00;;;;5032300;28;20662;-84
2023/01/15 06:16:40;;;;;;;18.27;1.40;;;11.70;71.40;11.90;95220.00;;;;5031874;28;20201;-84
2023/01/15 06:19:09;;;;;;;38.40;2.80;;;11.70;71.40;11.90;95223.00;;;;5031699;28;20284;-83
2023/01/15 06:21:37;;;;;;;2.00;0.80;;;11.70;71.40;11.90;95220.00;;;;5031116;28;20307;-84
2023/01/15 06:24:05;;;;;;;53.53;4.13;;;11.70;71.40;11.90;95211.00;;;;5031601;28;20222;-84
2023/01/15 06:26:33;;;;;;;2.83;0.70;;;11.70;71.40;11.90;95211.00;;;;5031336;28;20247;-84
2023/01/15 06:29:00;;;;;;;2.33;0.70;;;11.70;71.40;11.80;95212.00;;;;5031744;28;20221;-84
2023/01/15 06:31:27;;;;;;;71.87;5.53;;;11.70;71.30;11.80;95206.00;;;;5031854;28;20258;-83
2023/01/15 06:33:56;;;;;;;32.03;2.37;;;11.60;71.30;11.80;95204.00;;;;5031814;28;20205;-84
2023/01/15 06:36:26;;;;;;;56.83;3.93;;;11.60;71.50;11.80;95205.00;;;;5031584;28;20292;-83
2023/01/15 06:38:54;;;;;;;27.47;1.97;;;11.60;71.70;11.80;95209.00;;;;5032277;28;20228;-84
2023/01/15 06:49:47;;;;;;;0.70;0.70;;;11.60;71.70;11.70;95201.00;;;;5031510;28;20652;-83
2023/01/15 06:52:14;;;;;;;2.40;0.70;;;11.60;71.60;11.70;95203.00;;;;5031490;28;20193;-84
2023/01/15 06:54:42;;;;;;;15.93;1.60;;;11.60;71.50;11.70;95209.00;;;;5031198;28;20241;-83
2023/01/15 06:57:09;;;;;;;55.60;4.37;;;11.60;71.70;11.70;95201.00;;;;5031461;28;20220;-84
2023/01/15 06:59:36;;;;;;;5.73;1.40;;;11.60;71.80;11.80;95196.00;;;;5031775;28;20303;-84
2023/01/15 07:02:03;;;;;;;9.90;1.40;;;11.50;71.90;11.70;95193.00;;;;5031586;28;20233;-84
2023/01/15 07:04:31;;;;;;;1.20;0.70;;;11.50;71.90;11.70;95198.00;;;;5034443;28;20263;-84
2023/01/15 07:06:59;;;;;;;0.80;0.80;;;11.50;71.80;11.70;95184.00;;;;5035335;28;20232;-83
2023/01/15 07:09:26;;;;;;;0.80;0.80;;;11.50;71.70;11.70;95198.00;;;;5035048;28;20253;-84
2023/01/15 07:11:54;;;;;;;5.67;1.00;;;11.50;71.50;11.70;95191.00;;;;5035280;28;20201;-84
2023/01/15 07:14:26;;;;;;;1.33;0.80;;;11.50;71.40;11.70;95187.00;;;;5035109;28;20283;-84
2023/01/15 07:16:54;;;;;;;0.63;0.63;;;11.60;71.60;11.80;95181.00;;;;5035277;28;20213;-84
2023/01/15 07:19:21;;;;;;;0.50;0.50;;;11.60;71.60;11.80;95188.00;;;;5034783;28;20220;-84
2023/01/15 07:21:48;;;;;;;2.53;0.67;;;11.70;71.70;11.90;95173.00;;;;5035044;28;20257;-83
2023/01/15 07:24:18;;;;;;;0.60;0.47;;;11.70;71.60;12.00;95180.00;;;;5035602;28;20229;-84
2023/01/15 07:26:46;;;;;;;0.83;0.67;;;11.80;71.70;12.10;95178.00;;;;5034513;28;20201;-84
2023/01/15 07:29:13;;;;;;;0.43;0.43;;;11.90;71.80;12.20;95186.00;;;;5034239;28;20247;-84
2023/01/15 07:31:41;;;;;;;1.07;0.90;;;12.00;72.00;12.30;95181.00;;;;5034733;28;20229;-84
2023/01/15 07:34:09;;;;;;;0.30;0.30;;;12.00;72.20;12.40;95188.00;;;;5034191;28;20237;-84
2023/01/15 07:36:37;;;;;;;0.43;0.30;;;12.20;72.50;12.60;95186.00;;;;5034603;28;20560;-84
2023/01/15 07:39:05;;;;;;;0.30;0.27;;;12.30;72.80;12.70;95187.00;;;;5034298;28;20205;-84
2023/01/15 07:49:54;;;;;;;0.20;0.10;;;12.90;72.80;13.50;95192.00;;;;5034134;28;20755;-84
2023/01/15 07:52:22;;;;;;;0.30;0.27;;;13.10;72.70;13.60;95190.00;;;;5033804;28;20300;-84
2023/01/15 07:54:51;;;;;;;0.13;0.13;;;13.30;72.50;13.80;95181.00;;;;5033743;28;20201;-84
2023/01/15 07:57:22;;;;;;;0.17;0.17;;;13.40;72.20;13.90;95191.00;;;;5033644;28;20201;-84
2023/01/15 07:59:50;;;;;;;0.27;0.10;;;13.60;71.90;14.10;95183.00;;;;5033772;28;20279;-84
2023/01/15 08:02:17;;;;;;;0.33;0.10;;;13.80;71.70;14.20;95179.00;;;;5033948;28;20607;-84
2023/01/15 08:04:46;;;;;;;0.20;0.10;;;13.90;71.40;14.30;95180.00;;;;5033622;28;20288;-83
2023/01/15 08:07:17;;;;;;;0.30;0.30;;;14.00;71.00;14.50;95189.00;;;;5033304;28;20205;-84
2023/01/15 08:09:45;;;;;;;2.83;0.40;;;14.10;70.60;14.60;95190.00;;;;5033510;28;20221;-84
2023/01/15 08:15:12;;;;;;;0.30;0.27;;;14.40;70.20;14.80;95193.00;;;;5033030;28;20661;-84
2023/01/15 08:17:42;;;;;;;0.30;0.20;;;14.50;69.70;14.90;95181.00;;;;5034570;28;20706;-83
2023/01/15 08:20:13;;;;;;;1.30;0.40;;;14.60;69.40;15.00;95174.00;;;;5034113;28;20233;-83
2023/01/15 08:22:41;;;;;;;0.10;0.10;;;14.80;69.10;15.10;95185.00;;;;5036000;28;20209;-85
2023/01/15 08:25:11;;;;;;;1.23;0.27;;;14.80;68.70;15.20;95192.00;;;;5034831;28;20801;-85
2023/01/15 08:27:40;;;;;;;0.20;0.20;;;14.90;68.40;15.30;95184.00;;;;5034943;28;20189;-85
2023/01/15 08:30:14;;;;;;;0.10;0.10;;;15.00;68.30;15.40;95177.00;;;;5035276;28;20674;-85
2023/01/15 08:32:42;;;;;;;0.33;0.27;;;15.10;67.80;15.40;95185.00;;;;5035881;28;20549;-84
2023/01/15 08:35:11;;;;;;;3.00;0.57;;;15.20;67.70;15.50;95186.00;;;;5035761;28;20247;-84
2023/01/15 08:37:39;;;;;;;1.70;0.37;;;15.30;67.30;15.60;95183.00;;;;5036233;28;20224;-84
2023/01/15 08:40:07;;;;;;;0.60;0.60;;;15.40;67.20;15.70;95186.00;;;;5036599;28;20275;-84
2023/01/15 08:42:35;;;;;;;0.70;0.60;;;15.40;66.90;15.70;95186.00;;;;5036194;28;20682;-85
2023/01/15 08:45:03;;;;;;;2.33;0.20;;;15.50;66.50;15.80;95188.00;;;;5035541;28;20237;-84
2023/01/15 08:47:32;;;;;;;0.67;0.30;;;15.60;66.30;15.90;95184.00;;;;5052114;28;20219;-85
2023/01/15 08:49:59;;;;;;;0.10;0.10;;;15.60;65.60;15.90;95189.00;;;;5054401;28;20228;-85
2023/01/15 08:52:26;;;;;;;0.50;0.13;;;15.70;65.80;16.00;95177.00;;;;5054671;28;20250;-84
2023/01/15 08:54:53;;;;;;;0.20;0.20;;;15.80;65.50;16.00;95179.00;;;;5048187;28;20651;-85
2023/01/15 08:57:21;;;;;;;8.90;0.80;;;15.80;65.20;16.10;95160.00;;;;5033703;28;20259;-84
2023/01/15 08:59:48;;;;;;;0.07;0.07;;;15.90;65.20;16.20;95169.00;;;;5033856;28;20248;-85
2023/01/15 09:02:17;;;;;;;0.20;0.10;;;15.90;65.10;16.20;95164.00;;;;5048438;28;20216;-85
2023/01/15 09:04:45;;;;;;;0.10;0.10;;;16.00;64.60;16.30;95169.00;;;;5045225;28;20204;-85
2023/01/15 09:07:13;;;;;;;0.10;0.10;;;16.00;64.10;16.30;95163.00;;;;5038393;28;20205;-85
2023/01/15 09:09:40;;;;;;;9.13;0.90;;;16.10;64.00;16.40;95149.00;;;;5034002;28;20256;-84
2023/01/15 09:15:01;;;;;;;0.10;0.10;;;16.20;63.80;16.50;95154.00;;;;5040653;28;20229;-85
2023/01/15 09:17:31;;;;;;;6.00;0.60;;;16.30;63.60;16.60;95150.00;;;;5050164;28;20663;-84
2023/01/15 09:20:03;;;;;;;0.10;0.10;;;16.30;63.50;16.60;95151.00;;;;5053182;28;21070;-85
2023/01/15 09:22:35;;;;;;;0.10;0.07;;;16.40;63.40;16.60;95146.00;;;;5043153;28;20201;-85
2023/01/15 09:25:15;;;;;;;0.37;0.17;;;16.40;63.20;16.70;95144.00;;;;5033550;28;20201;-85
2023/01/15 09:27:50;;;;;;;0.27;0.20;;;16.50;63.00;16.70;95140.00;;;;5034328;28;20205;-85
2023/01/15 09:30:26;;;;;;;0.80;0.20;;;16.50;62.60;16.80;95154.00;;;;5034255;28;20213;-84
2023/01/15 09:32:55;;;;;;;0.10;0.10;;;16.50;62.60;16.80;95152.00;;;;5033018;28;20212;-84
2023/01/15 09:35:24;;;;;;;0.50;0.30;;;16.60;62.60;16.90;95149.00;;;;5033507;28;20251;-84
2023/01/15 09:37:52;;;;;;;12.30;0.67;;;16.60;62.60;16.90;95157.00;;;;5033614;28;20209;-85
2023/01/15 09:40:46;;;;;;;0.20;0.20;;;16.70;62.60;17.00;95150.00;;;;5033747;28;20286;-84
2023/01/15 09:43:28;;;;;;;1.00;0.77;;;16.70;61.90;17.00;95142.00;;;;5036878;28;20605;-84
2023/01/15 09:46:01;;;;;;;0.50;0.30;;;16.80;62.00;17.00;95155.00;;;;5049826;28;20219;-85
2023/01/15 09:48:53;;;;;;;0.30;0.30;;;16.80;62.00;17.10;95164.00;;;;5055827;28;20192;-82
2023/01/15 09:51:38;;;;;;;7.43;0.43;;;16.80;61.20;17.10;95173.00;;;;5057489;28;20282;-82
2023/01/15 09:54:29;;;;;;;0.30;0.30;;;16.90;61.50;17.10;95192.00;;;;5057142;28;20247;-82
2023/01/15 09:56:57;;;;;;;0.20;0.20;;;16.90;61.30;17.10;95206.00;;;;5034635;28;20193;-86
2023/01/15 09:59:34;;;;;;;2.37;0.50;;;16.90;61.40;17.00;95244.00;;;;5032515;28;20251;-85
2023/01/15 10:02:12;;;;;;;0.73;0.20;;;16.90;62.00;16.90;95266.00;;;;5032900;28;20204;-85
2023/01/15 10:04:48;;;;;;;1.20;0.20;;;16.80;61.90;16.70;95281.00;;;;5033705;28;20696;-82
2023/01/15 10:07:27;;;;;;;0.10;0.10;;;16.70;61.60;16.50;95289.00;;;;5034205;28;20622;-82
2023/01/15 10:10:03;;;;;;;0.30;0.20;;;16.60;61.40;16.20;95287.00;;;;5033006;28;20244;-82
2023/01/15 10:12:36;;;;;;;0.07;0.07;;;16.40;61.20;16.00;95276.00;;;;5033903;28;20196;-81
2023/01/15 10:15:20;;;;;;;0.20;0.10;;;16.20;61.40;15.70;95281.00;;;;5034051;28;20189;-83
2023/01/15 10:17:52;;;;;;;0.93;0.37;;;16.00;61.70;15.50;95273.00;;;;5033924;28;20178;-83
2023/01/15 10:20:49;;;;;;;0.40;0.27;;;15.70;61.70;15.20;95286.00;;;;5033803;28;20221;-82
2023/01/15 10:23:36;;;;;;;5.50;0.30;;;15.50;61.70;15.00;95292.00;;;;5033277;28;20208;-82
2023/01/15 10:26:17;;;;;;;4.20;0.47;;;15.30;62.00;14.80;95293.00;;;;5034433;28;20297;-82
2023/01/15 10:29:02;;;;;;;1.03;0.20;;;15.10;62.40;14.60;95318.00;;;;5034026;28;20229;-82
2023/01/15 10:31:52;;;;;;;0.10;0.10;;;14.90;62.90;14.50;95337.00;;;;5034471;28;20320;-82
2023/01/15 10:34:51;;;;;;;0.63;0.00;;;14.70;63.40;14.30;95350.00;;;;5034547;28;20196;-82
2023/01/15 10:37:29;;;;;;;0.10;0.10;;;14.50;64.30;14.10;95352.00;;;;5034057;28;20612;-82
2023/01/15 10:40:20;;;;;;;0.50;0.20;;;14.30;64.30;13.90;95354.00;;;;5038264;28;20225;-82
2023/01/15 10:43:01;;;;;;;0.20;0.10;;;14.10;63.70;13.70;95334.00;;;;5038693;28;20638;-82
2023/01/15 10:45:32;;;;;;;1.73;0.23;;;14.00;64.00;13.60;95328.00;;;;5038867;28;20177;-83
2023/01/15 10:48:10;;;;;;;0.77;0.10;;;13.80;64.10;13.50;95356.00;;;;5038272;28;20213;-81
2023/01/15 10:50:38;;;;;;;2.10;0.20;;;13.70;64.30;13.40;95324.00;;;;5037459;28;20232;-82
2023/01/15 10:53:15;;;;;;;3.60;0.30;;;13.60;64.50;13.30;95344.00;;;;5038448;28;20202;-82
2023/01/15 10:55:49;;;;;;;2.53;0.50;;;13.50;64.80;13.30;95353.00;;;;5037227;28;20235;-81
2023/01/15 10:58:29;;;;;;;1.00;0.23;;;13.40;64.90;13.30;95382.00;;;;5038451;28;20243;-82
2023/01/15 11:01:04;;;;;;;1.90;0.40;;;13.30;64.80;13.20;95384.00;;;;5038578;28;20237;-82
2023/01/15 11:03:37;;;;;;;1.60;0.30;;;13.20;64.90;13.20;95376.00;;;;5039260;28;20197;-81
2023/01/15 11:06:08;;;;;;;4.70;0.30;;;13.20;65.10;13.20;95382.00;;;;5039228;28;20267;-82
2023/01/15 11:08:36;;;;;;;0.80;0.00;;;13.20;65.30;13.20;95396.00;;;;5038520;28;20288;-82
2023/01/15 11:11:20;;;;;;;0.10;0.10;;;13.10;65.10;13.10;95400.00;;;;5038996;28;20225;-80
2023/01/15 11:19:37;;;;;;;0.20;0.13;;;13.00;65.00;12.90;95415.00;;;;5059495;28;20184;-82
2023/01/15 11:22:09;;;;;;;0.07;0.07;;;13.00;65.00;12.90;95421.00;;;;5059929;28;20184;-82
2023/01/15 11:24:44;;;;;;;0.60;0.17;;;12.90;64.90;12.80;95412.00;;;;5059791;28;20222;-82
2023/01/15 11:27:17;;;;;;;0.00;0.00;;;12.90;64.90;12.80;95424.00;;;;5059381;28;20216;-82
2023/01/15 11:29:54;;;;;;;0.20;0.10;;;12.80;64.20;12.70;95427.00;;;;5059701;28;20247;-81
2023/01/15 11:32:29;;;;;;;1.27;0.20;;;12.80;64.10;12.70;95426.00;;;;5058271;28;20546;-82
2023/01/15 11:34:59;;;;;;;0.17;0.17;;;12.70;64.00;12.60;95420.00;;;;5057527;28;20291;-79
2023/01/15 11:37:27;;;;;;;0.13;0.10;;;12.70;63.90;12.60;95431.00;;;;5057527;28;20220;-81
2023/01/15 11:40:06;;;;;;;4.83;0.43;;;12.60;63.90;12.50;95437.00;;;;5057206;28;20248;-82
2023/01/15 11:51:12;;;;;;;1.03;0.10;;;12.50;64.80;12.40;95434.00;;;;5057113;28;20646;-82
2023/01/15 11:53:45;;;;;;;0.20;0.20;;;12.40;65.00;12.40;95434.00;;;;5057485;28;20184;-81
2023/01/15 11:56:17;;;;;;;1.00;0.30;;;12.40;65.30;12.40;95432.00;;;;5057835;28;20687;-82
2023/01/15 11:58:53;;;;;;;0.60;0.07;;;12.40;65.60;12.30;95432.00;;;;5058158;28;20238;-82
2023/01/15 12:01:28;;;;;;;1.53;0.30;;;12.30;65.30;12.30;95442.00;;;;5057754;28;20246;-81
2023/01/15 12:03:58;;;;;;;4.20;0.43;;;12.30;65.40;12.20;95444.00;;;;5059022;28;20242;-81
2023/01/15 12:06:27;;;;;;;0.10;0.10;;;12.30;65.40;12.20;95453.00;;;;5058023;28;20229;-82